Orange8 — JL6278 — position and weather

sailwx.info

Track history (hours):
 
Tides and Currents Weather Stations Pressure Air Temp Water Temp Dewpoint Dewpoint Depression Visibility Wind Speed Wind Dir Waves Ship Positions

Orange8

Last reported at 2014-Jul-25 14:33 UTC. Time now 2014-Jul-26 01:09 UTC.
Position N 34°37' E 134°57'.

Length 164 m; draft 5 m.

Type: Passenger vessel. MMSI: 431501603.

Date/timePositionNaut miles runAvg speedWind from/ knotsBaromVisibWave heightAir tempDewpointWater temp
2014-Jul-25 14:33N 34°37' E 134°57'1818.0
2014-Jul-25 13:33N 34°36' E 135°19'6 5.7
2014-Jul-25 12:31N 34°37' E 135°26'0 0.0
2014-Jul-25 11:31N 34°37' E 135°26'0 0.0
2014-Jul-25 10:31N 34°37' E 135°26'0 0.0
2014-Jul-25 09:31N 34°37' E 135°26'0 0.0
2014-Jul-25 08:19N 34°37' E 135°26'0 0.0
2014-Jul-25 07:31N 34°37' E 135°26'0 0.0
2014-Jul-25 06:31N 34°37' E 135°26'0 0.0
2014-Jul-25 05:31N 34°37' E 135°26'0 0.0
2014-Jul-25 04:31N 34°37' E 135°26'0 0.0
2014-Jul-25 03:13N 34°37' E 135°26'0 0.0
2014-Jul-25 02:31N 34°37' E 135°26'0 0.0
2014-Jul-25 01:31N 34°37' E 135°26'0 0.0
2014-Jul-25 00:31N 34°37' E 135°26'0 0.0
2014-Jul-24 23:31N 34°37' E 135°26'0 0.0
2014-Jul-24 22:31N 34°37' E 135°26'0 0.0
2014-Jul-24 21:31N 34°37' E 135°26'6 6.5
2014-Jul-24 20:33N 34°36' E 135°18'1817.9
2014-Jul-24 19:33N 34°36' E 134°57'2 0.1
2014-Jul-23 14:33N 34°38' E 134°58'1818.0
2014-Jul-23 13:33N 34°37' E 135°20'5 4.4
2014-Jul-23 12:28N 34°37' E 135°26'0 0.0
2014-Jul-23 11:22N 34°37' E 135°26'0 0.0
2014-Jul-23 10:28N 34°37' E 135°26'0 0.0
2014-Jul-23 09:28N 34°37' E 135°26'0 0.0
2014-Jul-23 08:16N 34°37' E 135°26'0 0.0
2014-Jul-23 07:22N 34°37' E 135°26'0 0.0
2014-Jul-23 06:28N 34°37' E 135°26'0 0.0
2014-Jul-23 05:22N 34°37' E 135°26'0 0.0
2014-Jul-23 04:28N 34°37' E 135°26'0 0.0
2014-Jul-23 03:22N 34°37' E 135°26'0 0.0
2014-Jul-23 02:28N 34°37' E 135°26'0 0.0
2014-Jul-23 01:28N 34°37' E 135°26'0 0.0
2014-Jul-23 00:28N 34°37' E 135°26'0 0.0
2014-Jul-22 23:28N 34°37' E 135°26'0 0.0
2014-Jul-22 22:28N 34°37' E 135°26'0 0.0
2014-Jul-22 21:28N 34°37' E 135°26'5 5.6
2014-Jul-22 20:33N 34°36' E 135°20'1817.9
2014-Jul-22 19:33N 34°37' E 134°58'0 0.0
2014-Jul-21 14:31N 34°37' E 134°58'1717.7
2014-Jul-21 13:34N 34°36' E 135°19'6 5.6
2014-Jul-21 12:30N 34°37' E 135°26'0 0.0
2014-Jul-21 11:30N 34°37' E 135°26'0 0.0
2014-Jul-21 10:24N 34°37' E 135°26'0 0.0
2014-Jul-21 09:30N 34°37' E 135°26'0 0.0
2014-Jul-21 08:24N 34°37' E 135°26'0 0.0
2014-Jul-21 07:30N 34°37' E 135°26'0 0.0
2014-Jul-21 06:30N 34°37' E 135°26'0 0.0
2014-Jul-21 05:24N 34°37' E 135°26'0 0.0
2014-Jul-21 04:24N 34°37' E 135°26'0 0.0
2014-Jul-21 03:18N 34°37' E 135°26'0 0.0
2014-Jul-21 02:18N 34°37' E 135°26'0 0.0
2014-Jul-21 01:30N 34°37' E 135°26'0 0.0
2014-Jul-21 00:24N 34°37' E 135°26'0 0.0
2014-Jul-20 23:30N 34°37' E 135°26'0 0.0
2014-Jul-20 22:30N 34°37' E 135°26'0 0.0
2014-Jul-20 21:30N 34°37' E 135°26'5 5.2
2014-Jul-20 20:33N 34°36' E 135°20'1817.9
2014-Jul-20 19:33N 34°36' E 134°58'1 0.0
2014-Jul-19 14:33N 34°37' E 134°58'1717.4
2014-Jul-19 13:33N 34°36' E 135°19'6 5.1
2014-Jul-19 12:23N 34°37' E 135°26'0 0.0
2014-Jul-19 11:11N 34°37' E 135°26'0 0.0
2014-Jul-19 10:29N 34°37' E 135°26'0 0.0
2014-Jul-19 09:29N 34°37' E 135°26'0 0.0
2014-Jul-19 08:29N 34°37' E 135°26'0 0.0
2014-Jul-19 07:29N 34°37' E 135°26'0 0.0
2014-Jul-19 06:29N 34°37' E 135°26'0 0.0
2014-Jul-19 05:23N 34°37' E 135°26'0 0.0
2014-Jul-19 04:29N 34°37' E 135°26'0 0.0
2014-Jul-19 03:29N 34°37' E 135°26'0 0.0
2014-Jul-19 02:29N 34°37' E 135°26'0 0.0
2014-Jul-19 01:23N 34°37' E 135°26'0 0.0
2014-Jul-19 00:29N 34°37' E 135°26'0 0.0
2014-Jul-18 23:29N 34°37' E 135°26'0 0.0
2014-Jul-18 22:23N 34°37' E 135°26'0 0.0
2014-Jul-18 21:29N 34°37' E 135°26'6 6.8
2014-Jul-18 20:32N 34°35' E 135°18'1818.3
2014-Jul-18 19:33N 34°36' E 134°56'9 0.3
2014-Jul-17 15:03N 34°33' E 134°47'1120.6
2014-Jul-17 14:32N 34°38' E 134°59'1818.3
2014-Jul-17 13:33N 34°37' E 135°20'5 2.1
2014-Jul-17 11:13N 34°37' E 135°26'0 0.0
2014-Jul-17 10:19N 34°37' E 135°26'0 0.0
2014-Jul-17 09:31N 34°37' E 135°26'0 0.0
2014-Jul-17 08:07N 34°37' E 135°26'0 0.0
2014-Jul-17 07:25N 34°37' E 135°26'0 0.0
2014-Jul-17 06:31N 34°37' E 135°26'0 0.0
2014-Jul-17 05:31N 34°37' E 135°26'0 0.0
2014-Jul-17 04:25N 34°37' E 135°26'0 0.0
2014-Jul-17 03:31N 34°37' E 135°26'0 0.0
2014-Jul-17 02:31N 34°37' E 135°26'0 0.0
2014-Jul-17 01:31N 34°37' E 135°26'0 0.0
2014-Jul-17 00:25N 34°37' E 135°26'0 0.0
2014-Jul-16 23:25N 34°37' E 135°26'0 0.0
2014-Jul-16 22:13N 34°37' E 135°26'0 0.0
2014-Jul-16 21:19N 34°37' E 135°26'7 8.7
2014-Jul-16 20:33N 34°34' E 135°19'1919.0
2014-Jul-16 19:33N 34°36' E 134°56'  
Track history (hours):
 
Tides and Currents Weather Stations Pressure Air Temp Water Temp Dewpoint Dewpoint Depression Visibility Wind Speed Wind Dir Waves Ship Positions

Orange8

Last reported at 2014-Jul-25 14:33 UTC. Time now 2014-Jul-26 01:09 UTC.
Position N 34°37' E 134°57'.

Length 164 m; draft 5 m.

Type: Passenger vessel. MMSI: 431501603.

Date/timePositionNaut miles runAvg speedWind from/ knotsBaromVisibWave heightAir tempDewpointWater temp
2014-Jul-25 14:33N 34°37' E 134°57'1818.0
2014-Jul-25 13:33N 34°36' E 135°19'6 5.7
2014-Jul-25 12:31N 34°37' E 135°26'0 0.0
2014-Jul-25 11:31N 34°37' E 135°26'0 0.0
2014-Jul-25 10:31N 34°37' E 135°26'0 0.0
2014-Jul-25 09:31N 34°37' E 135°26'0 0.0
2014-Jul-25 08:19N 34°37' E 135°26'0 0.0
2014-Jul-25 07:31N 34°37' E 135°26'0 0.0
2014-Jul-25 06:31N 34°37' E 135°26'0 0.0
2014-Jul-25 05:31N 34°37' E 135°26'0 0.0
2014-Jul-25 04:31N 34°37' E 135°26'0 0.0
2014-Jul-25 03:13N 34°37' E 135°26'0 0.0
2014-Jul-25 02:31N 34°37' E 135°26'0 0.0
2014-Jul-25 01:31N 34°37' E 135°26'0 0.0
2014-Jul-25 00:31N 34°37' E 135°26'0 0.0
2014-Jul-24 23:31N 34°37' E 135°26'0 0.0
2014-Jul-24 22:31N 34°37' E 135°26'0 0.0
2014-Jul-24 21:31N 34°37' E 135°26'6 6.5
2014-Jul-24 20:33N 34°36' E 135°18'1817.9
2014-Jul-24 19:33N 34°36' E 134°57'2 0.1
2014-Jul-23 14:33N 34°38' E 134°58'1818.0
2014-Jul-23 13:33N 34°37' E 135°20'5 4.4
2014-Jul-23 12:28N 34°37' E 135°26'0 0.0
2014-Jul-23 11:22N 34°37' E 135°26'0 0.0
2014-Jul-23 10:28N 34°37' E 135°26'0 0.0
2014-Jul-23 09:28N 34°37' E 135°26'0 0.0
2014-Jul-23 08:16N 34°37' E 135°26'0 0.0
2014-Jul-23 07:22N 34°37' E 135°26'0 0.0
2014-Jul-23 06:28N 34°37' E 135°26'0 0.0
2014-Jul-23 05:22N 34°37' E 135°26'0 0.0
2014-Jul-23 04:28N 34°37' E 135°26'0 0.0
2014-Jul-23 03:22N 34°37' E 135°26'0 0.0
2014-Jul-23 02:28N 34°37' E 135°26'0 0.0
2014-Jul-23 01:28N 34°37' E 135°26'0 0.0
2014-Jul-23 00:28N 34°37' E 135°26'0 0.0
2014-Jul-22 23:28N 34°37' E 135°26'0 0.0
2014-Jul-22 22:28N 34°37' E 135°26'0 0.0
2014-Jul-22 21:28N 34°37' E 135°26'5 5.6
2014-Jul-22 20:33N 34°36' E 135°20'1817.9
2014-Jul-22 19:33N 34°37' E 134°58'0 0.0
2014-Jul-21 14:31N 34°37' E 134°58'1717.7
2014-Jul-21 13:34N 34°36' E 135°19'6 5.6
2014-Jul-21 12:30N 34°37' E 135°26'0 0.0
2014-Jul-21 11:30N 34°37' E 135°26'0 0.0
2014-Jul-21 10:24N 34°37' E 135°26'0 0.0
2014-Jul-21 09:30N 34°37' E 135°26'0 0.0
2014-Jul-21 08:24N 34°37' E 135°26'0 0.0
2014-Jul-21 07:30N 34°37' E 135°26'0 0.0
2014-Jul-21 06:30N 34°37' E 135°26'0 0.0
2014-Jul-21 05:24N 34°37' E 135°26'0 0.0
2014-Jul-21 04:24N 34°37' E 135°26'0 0.0
2014-Jul-21 03:18N 34°37' E 135°26'0 0.0
2014-Jul-21 02:18N 34°37' E 135°26'0 0.0
2014-Jul-21 01:30N 34°37' E 135°26'0 0.0
2014-Jul-21 00:24N 34°37' E 135°26'0 0.0
2014-Jul-20 23:30N 34°37' E 135°26'0 0.0
2014-Jul-20 22:30N 34°37' E 135°26'0 0.0
2014-Jul-20 21:30N 34°37' E 135°26'5 5.2
2014-Jul-20 20:33N 34°36' E 135°20'1817.9
2014-Jul-20 19:33N 34°36' E 134°58'1 0.0
2014-Jul-19 14:33N 34°37' E 134°58'1717.4
2014-Jul-19 13:33N 34°36' E 135°19'6 5.1
2014-Jul-19 12:23N 34°37' E 135°26'0 0.0
2014-Jul-19 11:11N 34°37' E 135°26'0 0.0
2014-Jul-19 10:29N 34°37' E 135°26'0 0.0
2014-Jul-19 09:29N 34°37' E 135°26'0 0.0
2014-Jul-19 08:29N 34°37' E 135°26'0 0.0
2014-Jul-19 07:29N 34°37' E 135°26'0 0.0
2014-Jul-19 06:29N 34°37' E 135°26'0 0.0
2014-Jul-19 05:23N 34°37' E 135°26'0 0.0
2014-Jul-19 04:29N 34°37' E 135°26'0 0.0
2014-Jul-19 03:29N 34°37' E 135°26'0 0.0
2014-Jul-19 02:29N 34°37' E 135°26'0 0.0
2014-Jul-19 01:23N 34°37' E 135°26'0 0.0
2014-Jul-19 00:29N 34°37' E 135°26'0 0.0
2014-Jul-18 23:29N 34°37' E 135°26'0 0.0
2014-Jul-18 22:23N 34°37' E 135°26'0 0.0
2014-Jul-18 21:29N 34°37' E 135°26'6 6.8
2014-Jul-18 20:32N 34°35' E 135°18'1818.3
2014-Jul-18 19:33N 34°36' E 134°56'9 0.3
2014-Jul-17 15:03N 34°33' E 134°47'1120.6
2014-Jul-17 14:32N 34°38' E 134°59'1818.3
2014-Jul-17 13:33N 34°37' E 135°20'5 2.1
2014-Jul-17 11:13N 34°37' E 135°26'0 0.0
2014-Jul-17 10:19N 34°37' E 135°26'0 0.0
2014-Jul-17 09:31N 34°37' E 135°26'0 0.0
2014-Jul-17 08:07N 34°37' E 135°26'0 0.0
2014-Jul-17 07:25N 34°37' E 135°26'0 0.0
2014-Jul-17 06:31N 34°37' E 135°26'0 0.0
2014-Jul-17 05:31N 34°37' E 135°26'0 0.0
2014-Jul-17 04:25N 34°37' E 135°26'0 0.0
2014-Jul-17 03:31N 34°37' E 135°26'0 0.0
2014-Jul-17 02:31N 34°37' E 135°26'0 0.0
2014-Jul-17 01:31N 34°37' E 135°26'0 0.0
2014-Jul-17 00:25N 34°37' E 135°26'0 0.0
2014-Jul-16 23:25N 34°37' E 135°26'0 0.0
2014-Jul-16 22:13N 34°37' E 135°26'0 0.0
2014-Jul-16 21:19N 34°37' E 135°26'7 8.7
2014-Jul-16 20:33N 34°34' E 135°19'1919.0
2014-Jul-16 19:33N 34°36' E 134°56'  

Dump ship's entire track history